Time;durP1;ratioP1;P1;durP2;ratioP2;P2;SDS_P1;SDS_P2;PMS_P1;PMS_P2;Temp;Humidity;BMP_temperature;BMP_pressure;BME280_temperature;BME280_humidity;BME280_pressure;Samples;Min_cycle;Max_cycle;Signal;HPM_P1;HPM_P2
2022/11/11 00:01:03;;;;;;;39.50;22.63;;;;;;;7.76;100.00;101788.09;1438700;89;21324;-87
2022/11/11 00:03:30;;;;;;;34.20;20.93;;;;;;;7.75;100.00;101795.64;1439718;89;21398;-88
2022/11/11 00:06:06;;;;;;;48.00;23.47;;;;;;;7.77;100.00;101801.64;1438685;89;21399;-87
2022/11/11 00:08:32;;;;;;;44.30;24.07;;;;;;;7.76;100.00;101801.28;1431200;89;21406;-88
2022/11/11 00:11:05;;;;;;;44.93;22.57;;;;;;;7.75;100.00;101821.52;1440416;89;21531;-89
2022/11/11 00:13:33;;;;;;;42.73;23.57;;;;;;;7.72;100.00;101823.03;1441570;89;21413;-89
2022/11/11 00:16:18;;;;;;;43.83;22.73;;;;;;;7.71;100.00;101820.47;1438404;89;22220;-86
2022/11/11 00:27:11;;;;;;;35.00;21.37;;;;;;;7.63;100.00;101824.45;1425379;90;22204;-90
2022/11/11 00:29:38;;;;;;;37.93;21.90;;;;;;;7.59;100.00;101836.09;1443202;89;21362;-87
2022/11/11 00:33:01;;;;;;;44.73;23.73;;;;;;;7.54;100.00;101830.28;1424698;89;21502;-88
2022/11/11 00:40:59;;;;;;;33.67;19.97;;;;;;;7.32;100.00;101824.62;1456977;88;22294;-88
2022/11/11 00:43:42;;;;;;;35.00;22.27;;;;;;;7.23;100.00;101823.39;1460374;88;21531;-89
2022/11/11 00:51:38;;;;;;;43.87;24.77;;;;;;;7.01;100.00;101827.75;1442656;88;21382;-89
2022/11/11 00:54:05;;;;;;;39.87;22.37;;;;;;;6.95;100.00;101825.48;1446402;88;21525;-88
2022/11/11 00:56:32;;;;;;;36.67;23.03;;;;;;;6.92;100.00;101826.50;1461812;88;21622;-89
2022/11/11 00:58:58;;;;;;;34.50;20.93;;;;;;;6.88;100.00;101827.63;1426503;91;21526;-90
2022/11/11 01:01:24;;;;;;;37.50;21.63;;;;;;;6.86;100.00;101826.87;1434459;91;21487;-89
2022/11/11 01:03:50;;;;;;;32.77;20.90;;;;;;;6.84;100.00;101829.20;1455328;87;22318;-90
2022/11/11 01:06:16;;;;;;;34.77;19.97;;;;;;;6.84;100.00;101825.26;1467787;88;21387;-90
2022/11/11 01:08:43;;;;;;;35.47;20.83;;;;;;;6.84;100.00;101830.52;1451405;89;21410;-89
2022/11/11 01:11:15;;;;;;;37.73;22.13;;;;;;;6.80;100.00;101831.17;1469641;88;21285;-89
2022/11/11 01:13:42;;;;;;;33.17;19.67;;;;;;;6.80;100.00;101829.86;1464994;88;21343;-88
2022/11/11 01:17:00;;;;;;;31.87;19.03;;;;;;;6.78;100.00;101829.94;1457092;88;21558;-88
2022/11/11 01:19:26;;;;;;;34.73;21.50;;;;;;;6.77;100.00;101825.62;1469675;88;21329;-85
2022/11/11 01:21:55;;;;;;;42.70;22.30;;;;;;;6.76;100.00;101829.20;1460728;87;21294;-88
2022/11/11 01:24:22;;;;;;;34.40;21.33;;;;;;;6.78;100.00;101828.62;1441452;89;21541;-89
2022/11/11 01:26:48;;;;;;;36.67;21.63;;;;;;;6.80;100.00;101834.28;1439238;89;21555;-86
2022/11/11 01:29:15;;;;;;;39.53;20.20;;;;;;;6.78;100.00;101824.67;1430078;90;22197;-87
2022/11/11 01:31:41;;;;;;;33.47;20.47;;;;;;;6.78;100.00;101827.30;1456606;88;21363;-90
2022/11/11 01:34:54;;;;;;;34.63;20.73;;;;;;;6.80;100.00;101828.55;1463992;88;21370;-87
2022/11/11 01:37:20;;;;;;;36.87;20.97;;;;;;;6.80;100.00;101825.07;1461051;88;21491;-88
2022/11/11 01:39:46;;;;;;;33.63;19.10;;;;;;;6.78;100.00;101826.46;1466850;88;21252;-91
2022/11/11 01:42:12;;;;;;;33.07;19.33;;;;;;;6.78;100.00;101827.77;1449848;89;21395;-90
2022/11/11 01:44:46;;;;;;;34.00;18.57;;;;;;;6.79;100.00;101828.17;1425160;91;21960;-86
2022/11/11 01:47:13;;;;;;;34.83;19.00;;;;;;;6.83;100.00;101831.47;1437519;89;21515;-87
2022/11/11 01:49:57;;;;;;;32.43;19.37;;;;;;;6.87;100.00;101831.66;1416924;89;21368;-88
2022/11/11 01:52:32;;;;;;;34.53;19.80;;;;;;;6.90;100.00;101834.11;1431260;89;22292;-87
2022/11/11 01:55:03;;;;;;;39.03;22.50;;;;;;;6.91;100.00;101847.20;1435158;89;21419;-88
2022/11/11 01:58:02;;;;;;;30.13;18.33;;;;;;;6.91;100.00;101840.61;1434463;89;21605;-89
2022/11/11 02:00:28;;;;;;;32.80;19.30;;;;;;;6.88;100.00;101842.11;1435247;89;21530;-90
2022/11/11 02:03:02;;;;;;;29.00;16.80;;;;;;;6.84;100.00;101842.36;1437627;89;21384;-90
2022/11/11 02:05:44;;;;;;;30.90;18.57;;;;;;;6.83;100.00;101845.95;1436746;89;21421;-86
2022/11/11 02:08:32;;;;;;;26.20;17.70;;;;;;;6.80;100.00;101842.17;1449339;89;21325;-88
2022/11/11 02:14:34;;;;;;;29.83;17.03;;;;;;;6.77;100.00;101847.98;1433791;89;21428;-88
2022/11/11 02:16:34;;;;;;;30.50;16.13;;;;;;;6.68;100.00;101840.63;1460879;89;21438;-88
2022/11/11 02:19:01;;;;;;;28.60;17.97;;;;;;;6.61;100.00;101837.95;1454301;88;21362;-90
2022/11/11 02:21:38;;;;;;;27.37;16.70;;;;;;;6.54;100.00;101841.88;1457726;88;21522;-88
2022/11/11 02:24:12;;;;;;;25.37;15.37;;;;;;;6.47;100.00;101856.30;1466227;87;21877;-87
2022/11/11 02:26:39;;;;;;;25.00;14.67;;;;;;;6.41;100.00;101860.59;1462808;87;21344;-89
2022/11/11 02:29:10;;;;;;;29.07;16.60;;;;;;;6.38;100.00;101856.81;1460644;88;21388;-89
2022/11/11 02:31:36;;;;;;;23.80;15.63;;;;;;;6.37;100.00;101853.81;1466582;88;21495;-87
2022/11/11 02:34:02;;;;;;;24.63;15.93;;;;;;;6.30;100.00;101841.02;1458852;88;21473;-90
2022/11/11 02:36:28;;;;;;;27.43;16.03;;;;;;;6.30;100.00;101846.27;1441466;89;22258;-87
2022/11/11 02:38:55;;;;;;;25.87;15.60;;;;;;;6.26;100.00;101848.67;1434280;89;22333;-88
2022/11/11 02:44:05;;;;;;;26.53;15.53;;;;;;;6.11;100.00;101849.53;1439072;89;22175;-92
2022/11/11 02:46:32;;;;;;;21.30;13.53;;;;;;;6.08;100.00;101852.33;1437259;89;21435;-86
2022/11/11 02:48:58;;;;;;;19.33;12.53;;;;;;;6.09;100.00;101859.27;1433639;89;21405;-89
2022/11/11 02:51:24;;;;;;;23.77;13.67;;;;;;;6.13;100.00;101863.89;1451279;88;21355;-89
2022/11/11 02:53:50;;;;;;;20.33;12.80;;;;;;;6.16;100.00;101868.53;1457026;88;21362;-88
2022/11/11 02:57:06;;;;;;;23.27;13.00;;;;;;;6.22;100.00;101872.14;1452042;87;21488;-86
2022/11/11 02:58:44;;;;;;;23.93;13.73;;;;;;;6.27;100.00;101867.48;1420011;88;21448;-84
2022/11/11 03:01:10;;;;;;;18.60;12.37;;;;;;;6.33;100.00;101868.92;1466256;88;22268;-86
2022/11/11 03:03:36;;;;;;;24.33;15.20;;;;;;;6.35;100.00;101874.08;1459594;88;21422;-86
2022/11/11 03:06:03;;;;;;;23.73;15.33;;;;;;;6.36;100.00;101871.83;1456002;88;21369;-85
2022/11/11 03:08:29;;;;;;;25.50;15.67;;;;;;;6.36;100.00;101873.14;1453720;88;21393;-89
2022/11/11 03:11:37;;;;;;;22.33;14.70;;;;;;;6.33;100.00;101873.71;1463628;88;21360;-88
2022/11/11 03:14:01;;;;;;;23.30;14.83;;;;;;;6.28;100.00;101871.80;1456895;88;22670;-89
2022/11/11 03:19:13;;;;;;;26.57;13.93;;;;;;;6.18;100.00;101882.89;1457195;88;21483;-88
2022/11/11 03:21:39;;;;;;;30.27;15.40;;;;;;;6.15;100.00;101883.91;1465586;88;21389;-86
2022/11/11 03:24:05;;;;;;;22.57;13.03;;;;;;;6.13;100.00;101884.91;1431594;88;21602;-85
2022/11/11 03:26:32;;;;;;;21.67;12.90;;;;;;;6.13;100.00;101888.42;1456422;88;22277;-84
2022/11/11 03:28:58;;;;;;;25.57;14.03;;;;;;;6.14;100.00;101894.05;1456929;88;21910;-87
2022/11/11 03:31:24;;;;;;;31.50;15.03;;;;;;;6.14;100.00;101888.79;1436789;89;22536;-87
2022/11/11 03:33:50;;;;;;;29.23;14.80;;;;;;;6.13;100.00;101889.73;1454951;88;21544;-86
2022/11/11 03:36:16;;;;;;;23.00;15.13;;;;;;;6.10;100.00;101887.27;1457108;88;21427;-84
2022/11/11 03:38:42;;;;;;;22.00;14.83;;;;;;;6.02;100.00;101885.05;1461434;88;21317;-83
2022/11/11 03:41:47;;;;;;;25.33;13.37;;;;;;;5.96;100.00;101889.80;1462212;88;21353;-86
2022/11/11 03:44:13;;;;;;;28.30;15.30;;;;;;;5.92;100.00;101893.47;1458039;88;21405;-86
2022/11/11 03:46:39;;;;;;;28.70;15.57;;;;;;;5.87;100.00;101905.08;1458026;88;21452;-87
2022/11/11 03:49:04;;;;;;;20.43;12.93;;;;;;;5.81;100.00;101902.78;1451811;89;21391;-87
2022/11/11 03:51:30;;;;;;;19.23;12.90;;;;;;;5.79;100.00;101900.69;1454785;88;21512;-88
2022/11/11 03:53:57;;;;;;;25.13;13.43;;;;;;;5.79;100.00;101906.42;1461556;88;22255;-88
2022/11/11 03:56:23;;;;;;;21.23;13.00;;;;;;;5.77;100.00;101901.23;1468237;88;21397;-88
2022/11/11 03:59:00;;;;;;;22.30;13.37;;;;;;;5.76;100.00;101902.64;1461974;88;21448;-89
2022/11/11 04:12:27;;;;;;;21.53;11.93;;;;;;;5.54;100.00;101909.46;1458292;88;21419;-88
2022/11/11 04:17:38;;;;;;;18.97;10.53;;;;;;;5.50;100.00;101915.34;1458798;88;21346;-88
2022/11/11 04:23:17;;;;;;;19.40;12.13;;;;;;;5.41;100.00;101923.23;1461348;88;22780;-85
2022/11/11 04:25:49;;;;;;;18.70;11.97;;;;;;;5.35;100.00;101923.98;1461772;88;21509;-86
2022/11/11 04:31:00;;;;;;;18.37;10.87;;;;;;;5.24;100.00;101938.13;1457980;86;22497;-82
2022/11/11 04:33:26;;;;;;;23.43;12.10;;;;;;;5.17;100.00;101941.50;1468535;87;21338;-80
2022/11/11 04:35:52;;;;;;;17.77;10.73;;;;;;;5.12;100.00;101935.63;1458315;88;21293;-82
2022/11/11 04:41:07;;;;;;;18.40;11.70;;;;;;;5.05;100.00;101935.55;1436277;87;21523;-83
2022/11/11 04:45:26;;;;;;;19.30;11.57;;;;;;;5.01;100.00;101945.82;1475083;87;21546;-82
2022/11/11 04:46:04;;;;;;;16.90;11.13;;;;;;;4.95;100.00;101943.03;1472099;87;22624;-81
2022/11/11 04:48:30;;;;;;;14.67;9.73;;;;;;;4.90;100.00;101943.24;1443586;89;21628;-82
2022/11/11 04:50:56;;;;;;;21.30;10.90;;;;;;;4.84;100.00;101935.67;1464557;88;21365;-83
2022/11/11 04:53:22;;;;;;;15.60;10.67;;;;;;;4.79;100.00;101942.91;1466511;88;22255;-81
2022/11/11 04:58:34;;;;;;;17.37;11.23;;;;;;;4.83;100.00;101951.00;1464884;88;21344;-82
2022/11/11 05:01:01;;;;;;;12.77;8.87;;;;;;;4.91;100.00;101952.80;1464439;88;21958;-83
2022/11/11 05:03:27;;;;;;;21.00;9.37;;;;;;;4.99;100.00;101949.81;1500936;88;21507;-81
2022/11/11 05:08:56;;;;;;;15.10;9.83;;;;;;;5.15;100.00;101956.47;1447928;88;21688;-82
2022/11/11 05:11:32;;;;;;;16.90;9.07;;;;;;;5.20;100.00;101961.87;1471983;87;22044;-82
2022/11/11 05:22:29;;;;;;;14.07;10.17;;;;;;;5.27;100.00;101954.57;1456908;87;21375;-82
2022/11/11 05:27:40;;;;;;;15.00;9.80;;;;;;;5.22;100.00;101959.19;1436970;89;21372;-82
2022/11/11 05:30:09;;;;;;;16.33;10.23;;;;;;;5.19;100.00;101963.28;1465585;88;22453;-82
2022/11/11 05:32:36;;;;;;;15.43;10.57;;;;;;;5.17;100.00;101967.28;1389205;89;21309;-82
2022/11/11 05:35:03;;;;;;;14.50;9.93;;;;;;;5.13;100.00;101969.68;1465474;88;22462;-82
2022/11/11 05:37:30;;;;;;;15.50;11.50;;;;;;;5.06;100.00;101973.98;1464229;88;21373;-80
2022/11/11 05:39:56;;;;;;;21.57;10.53;;;;;;;4.99;100.00;101983.93;1465172;88;22268;-81
2022/11/11 05:42:22;;;;;;;19.20;10.93;;;;;;;4.95;100.00;101983.23;1469729;88;21389;-80
2022/11/11 05:44:49;;;;;;;17.60;10.70;;;;;;;4.94;100.00;101989.39;1472284;88;21396;-80
2022/11/11 05:47:15;;;;;;;15.17;9.43;;;;;;;4.95;100.00;101995.05;1465064;88;21486;-80
2022/11/11 05:49:42;;;;;;;15.37;8.53;;;;;;;4.96;100.00;101990.17;1460015;88;22269;-80
2022/11/11 05:52:15;;;;;;;15.50;9.67;;;;;;;4.99;100.00;101994.42;1472285;88;21500;-79
2022/11/11 05:54:42;;;;;;;13.80;9.27;;;;;;;5.00;100.00;101996.11;1533951;88;21249;-80
2022/11/11 05:57:09;;;;;;;16.03;11.23;;;;;;;5.00;100.00;102011.02;1450421;88;21441;-80
2022/11/11 05:59:35;;;;;;;15.23;9.83;;;;;;;4.96;100.00;102005.91;1479220;87;21413;-80
2022/11/11 06:02:01;;;;;;;17.33;11.63;;;;;;;4.97;100.00;102006.76;1472136;87;21329;-79
2022/11/11 06:04:27;;;;;;;19.20;11.17;;;;;;;5.01;100.00;102002.24;1465514;87;21391;-79
2022/11/11 06:06:54;;;;;;;18.43;10.50;;;;;;;5.07;100.00;102008.03;1465453;87;21605;-80
2022/11/11 06:09:20;;;;;;;19.03;10.73;;;;;;;5.13;100.00;102014.77;1474781;87;22048;-80
2022/11/11 06:11:46;;;;;;;22.83;10.60;;;;;;;5.18;100.00;102012.31;1470084;87;21545;-80
2022/11/11 06:14:12;;;;;;;17.10;11.80;;;;;;;5.19;100.00;102020.56;1470741;87;22374;-82
2022/11/11 06:16:38;;;;;;;14.80;9.70;;;;;;;5.23;100.00;102023.88;1459771;87;21405;-82
2022/11/11 06:19:04;;;;;;;21.47;11.60;;;;;;;5.26;100.00;102025.52;1442226;89;21407;-82
2022/11/11 06:21:55;;;;;;;19.00;10.80;;;;;;;5.33;100.00;102024.30;1446247;89;21508;-80
2022/11/11 06:23:59;;;;;;;16.07;9.77;;;;;;;5.41;100.00;102024.78;1458641;87;22263;-80
2022/11/11 06:26:25;;;;;;;14.47;9.20;;;;;;;5.54;100.00;102026.33;1466013;87;21389;-79
2022/11/11 06:28:56;;;;;;;15.43;7.80;;;;;;;5.64;100.00;102023.64;1468296;87;21456;-80
2022/11/11 06:31:26;;;;;;;;;;;;;;;5.79;100.00;102020.23;1468888;87;21524;-79
2022/11/11 06:33:53;;;;;;;16.15;10.40;;;;;;;5.92;100.00;102013.03;1440619;88;20355;-80
2022/11/11 06:36:21;;;;;;;16.10;9.97;;;;;;;6.03;100.00;102018.62;1438561;88;22371;-80
2022/11/11 06:38:47;;;;;;;20.63;9.77;;;;;;;6.06;100.00;102020.62;1471074;87;21420;-81
2022/11/11 06:41:15;;;;;;;20.17;9.10;;;;;;;6.17;100.00;102029.74;1462884;87;21361;-80
2022/11/11 06:43:42;;;;;;;17.40;9.50;;;;;;;6.24;100.00;102025.84;1444337;89;21419;-80
2022/11/11 06:46:14;;;;;;;21.33;10.10;;;;;;;6.33;100.00;102022.76;1466823;88;21462;-80
2022/11/11 06:48:41;;;;;;;14.40;10.23;;;;;;;6.44;100.00;102024.80;1538491;88;21366;-81
2022/11/11 06:51:10;;;;;;;16.70;8.30;;;;;;;6.58;100.00;102027.53;1388074;89;21263;-81
2022/11/11 06:53:36;;;;;;;17.57;11.00;;;;;;;6.68;100.00;102028.75;1546652;88;21331;-81
2022/11/11 06:56:02;;;;;;;12.87;9.73;;;;;;;6.80;100.00;102034.28;1421824;88;21367;-79
2022/11/11 06:58:28;;;;;;;15.73;9.63;;;;;;;6.88;100.00;102038.66;1458216;88;21367;-81
2022/11/11 07:00:54;;;;;;;23.67;9.87;;;;;;;6.99;100.00;102037.58;1468386;88;22299;-80
2022/11/11 07:03:21;;;;;;;14.33;9.30;;;;;;;7.10;100.00;102039.14;1469569;88;22327;-80
2022/11/11 07:05:54;;;;;;;15.60;10.37;;;;;;;7.25;100.00;102041.41;1456867;88;21315;-81
2022/11/11 07:08:20;;;;;;;18.57;10.37;;;;;;;7.42;100.00;102040.42;1463245;88;21411;-80
2022/11/11 07:10:48;;;;;;;23.30;11.80;;;;;;;7.53;100.00;102042.45;1456369;88;21575;-80
2022/11/11 07:13:15;;;;;;;17.73;10.30;;;;;;;7.65;100.00;102053.59;1468283;88;21533;-82
2022/11/11 07:15:43;;;;;;;16.20;11.47;;;;;;;7.78;100.00;102055.06;1461732;88;21441;-81
2022/11/11 07:18:10;;;;;;;18.80;10.07;;;;;;;7.88;100.00;102056.20;1388738;88;21256;-80
2022/11/11 07:20:37;;;;;;;16.67;9.87;;;;;;;7.93;100.00;102061.22;1385645;88;21279;-81
2022/11/11 07:23:06;;;;;;;13.57;9.63;;;;;;;8.03;100.00;102067.18;1391440;89;22077;-81
2022/11/11 07:25:32;;;;;;;23.30;11.50;;;;;;;8.18;100.00;102068.52;1419782;88;21640;-81
2022/11/11 07:27:59;;;;;;;58.40;34.03;;;;;;;8.25;100.00;102067.20;1455421;87;21557;-81
2022/11/11 07:30:25;;;;;;;24.03;12.80;;;;;;;8.29;98.95;102074.84;1458806;87;21377;-81
2022/11/11 07:32:52;;;;;;;16.17;10.87;;;;;;;8.35;99.04;102078.91;1491250;86;21908;-80
2022/11/11 07:35:20;;;;;;;14.37;9.27;;;;;;;8.46;99.53;102083.09;1477009;86;21384;-82
2022/11/11 07:37:47;;;;;;;16.90;10.77;;;;;;;8.52;98.76;102089.31;1388876;88;21266;-82
2022/11/11 07:40:15;;;;;;;20.20;10.77;;;;;;;8.64;99.66;102084.23;1564736;86;21293;-82
2022/11/11 07:42:42;;;;;;;16.77;9.13;;;;;;;8.76;98.34;102084.78;1403881;86;22220;-81
2022/11/11 07:45:11;;;;;;;18.27;9.13;;;;;;;8.91;99.34;102093.05;1531075;87;21348;-80
2022/11/11 07:47:38;;;;;;;16.47;9.27;;;;;;;8.95;97.24;102093.26;1487409;86;22571;-81
2022/11/11 07:50:06;;;;;;;18.30;9.63;;;;;;;9.04;96.47;102097.11;1488350;86;21925;-80
2022/11/11 07:52:33;;;;;;;20.17;10.47;;;;;;;9.11;94.77;102096.23;1460525;87;21369;-82
2022/11/11 07:54:59;;;;;;;19.50;9.87;;;;;;;9.20;94.90;102098.29;1485800;86;21870;-82
2022/11/11 07:57:24;;;;;;;15.40;9.27;;;;;;;9.23;95.32;102100.73;1490013;86;22024;-80
2022/11/11 07:59:50;;;;;;;18.27;9.23;;;;;;;9.23;94.84;102112.14;1463530;87;21473;-79
2022/11/11 08:02:17;;;;;;;18.53;9.20;;;;;;;9.25;93.44;102117.34;1457849;88;21417;-79
2022/11/11 08:04:43;;;;;;;20.43;10.10;;;;;;;9.35;95.43;102113.62;1464907;88;21442;-79
2022/11/11 08:07:09;;;;;;;24.10;9.23;;;;;;;9.52;94.96;102113.87;1463943;89;21435;-79
2022/11/11 08:09:35;;;;;;;17.20;9.13;;;;;;;9.60;92.64;102114.22;1483138;86;22867;-78
2022/11/11 08:14:46;;;;;;;10.60;6.43;;;;;;;9.62;91.49;102111.02;1478862;86;21373;-79
2022/11/11 08:17:12;;;;;;;11.33;7.60;;;;;;;9.73;89.26;102116.92;1489761;86;22599;-78
2022/11/11 08:19:38;;;;;;;13.97;7.93;;;;;;;9.90;90.28;102117.98;1486212;86;21403;-78
2022/11/11 08:22:05;;;;;;;17.30;9.13;;;;;;;10.08;90.08;102119.86;1483404;86;21432;-79
2022/11/11 08:24:31;;;;;;;13.33;8.47;;;;;;;10.25;91.06;102114.28;1483923;86;21434;-79
2022/11/11 08:26:57;;;;;;;15.10;7.43;;;;;;;10.41;88.57;102111.92;1455391;87;22321;-78
2022/11/11 08:29:23;;;;;;;15.10;7.80;;;;;;;10.54;86.74;102106.17;1485886;86;21403;-78
2022/11/11 08:31:52;;;;;;;16.97;6.70;;;;;;;10.69;85.06;102106.41;1496810;86;22290;-78
2022/11/11 08:34:18;;;;;;;16.73;8.63;;;;;;;10.88;86.93;102095.88;1399424;87;21398;-78
2022/11/11 08:36:44;;;;;;;14.27;8.07;;;;;;;11.01;81.12;102096.67;1415057;87;21345;-83
2022/11/11 08:39:10;;;;;;;17.37;9.13;;;;;;;11.14;82.91;102100.14;1542514;87;21185;-86
2022/11/11 08:41:36;;;;;;;26.43;8.63;;;;;;;11.26;81.81;102095.27;1383876;88;21370;-83
2022/11/11 08:44:03;;;;;;;17.10;7.43;;;;;;;11.42;81.41;102098.12;1435428;87;21340;-77
2022/11/11 08:46:30;;;;;;;15.30;7.70;;;;;;;11.52;81.07;102106.62;1479311;87;21536;-80
2022/11/11 08:48:57;;;;;;;15.37;7.00;;;;;;;11.67;82.86;102103.80;1484576;86;22790;-81
2022/11/11 08:51:23;;;;;;;14.00;6.63;;;;;;;11.83;80.91;102098.20;1484170;86;21314;-83
2022/11/11 08:53:49;;;;;;;13.57;7.07;;;;;;;11.90;80.08;102096.80;1485807;86;22023;-80
2022/11/11 08:56:15;;;;;;;12.20;6.73;;;;;;;11.99;75.56;102102.73;1483156;86;21981;-81
2022/11/11 08:58:41;;;;;;;14.77;7.23;;;;;;;12.10;76.70;102109.41;1486709;86;21338;-83
2022/11/11 09:01:12;;;;;;;15.50;8.13;;;;;;;12.19;78.00;102107.86;1459803;87;21288;-84
2022/11/11 09:03:42;;;;;;;12.03;7.57;;;;;;;12.31;78.62;102110.89;1549513;86;22401;-84
2022/11/11 09:06:10;;;;;;;11.43;7.27;;;;;;;12.37;74.30;102109.13;1457984;87;21435;-79
2022/11/11 09:08:37;;;;;;;14.40;7.23;;;;;;;12.54;78.10;102102.47;1480327;86;21314;-84
2022/11/11 09:11:03;;;;;;;15.07;6.53;;;;;;;12.69;75.78;102110.21;1457073;87;21524;-83
2022/11/11 09:13:29;;;;;;;11.60;5.93;;;;;;;13.08;73.05;102104.88;1477906;86;21539;-79
2022/11/11 09:15:56;;;;;;;10.70;6.53;;;;;;;13.95;72.47;102108.86;1486828;86;21398;-86
2022/11/11 09:18:22;;;;;;;8.97;5.67;;;;;;;14.82;69.69;102101.41;1485866;86;21337;-85
2022/11/11 09:20:48;;;;;;;15.18;5.83;;;;;;;15.52;67.65;102095.59;1484205;86;21389;-82
2022/11/11 09:23:15;;;;;;;14.80;6.20;;;;;;;16.14;64.08;102097.51;1491728;86;21447;-83
2022/11/11 09:25:41;;;;;;;12.45;5.72;;;;;;;16.52;63.61;102093.04;1466071;87;21374;-85
2022/11/11 09:28:07;;;;;;;12.00;6.50;;;;;;;17.19;63.44;102097.73;1483865;86;21388;-87
2022/11/11 09:30:33;;;;;;;13.32;5.62;;;;;;;17.63;62.85;102097.00;1485601;86;21486;-87
2022/11/11 09:33:03;;;;;;;14.55;5.58;;;;;;;17.90;55.94;102102.81;1453037;87;21406;-86
2022/11/11 09:35:29;;;;;;;;;;;;;;;18.41;61.10;102099.32;1489086;86;21471;-84
2022/11/11 09:37:59;;;;;;;10.38;4.72;;;;;;;18.23;57.75;102104.71;1492804;86;20406;-86
2022/11/11 09:40:29;;;;;;;12.80;5.00;;;;;;;18.07;60.54;102101.94;1567059;86;22099;-85
2022/11/11 09:43:13;;;;;;;7.53;4.40;;;;;;;17.52;58.69;102098.06;1566995;86;21367;-85
2022/11/11 09:45:53;;;;;;;8.88;4.33;;;;;;;16.85;52.30;102096.16;1564523;86;21263;-85
2022/11/11 09:48:45;;;;;;;11.53;4.55;;;;;;;16.05;54.83;102094.33;1427598;87;21499;-84
2022/11/11 09:51:17;;;;;;;8.98;5.47;;;;;;;16.03;59.35;102092.81;1492122;86;22480;-85
2022/11/11 09:53:53;;;;;;;7.30;4.00;;;;;;;15.70;58.93;102086.42;1482445;86;21577;-84
2022/11/11 09:56:23;;;;;;;10.72;4.47;;;;;;;15.40;60.14;102087.87;1405708;90;22304;-84
2022/11/11 09:59:19;;;;;;;13.03;5.20;;;;;;;15.08;60.36;102083.61;1576758;86;22091;-85
2022/11/11 10:01:55;;;;;;;8.57;4.20;;;;;;;14.88;61.60;102071.55;1513708;86;21450;-85
2022/11/11 10:04:36;;;;;;;16.43;5.50;;;;;;;14.85;62.88;102071.82;1464781;87;21532;-84
2022/11/11 10:07:08;;;;;;;;;;;;;;;15.04;62.44;102072.34;1457213;87;22330;-86
2022/11/11 10:09:55;;;;;;;17.07;6.07;;;;;;;15.11;59.78;102070.00;1457029;89;20392;-83
2022/11/11 10:12:24;;;;;;;12.90;5.73;;;;;;;15.17;62.67;102066.78;1485279;87;21514;-79
2022/11/11 10:14:51;;;;;;;8.43;4.00;;;;;;;15.03;59.81;102064.50;1487911;86;21388;-86
2022/11/11 10:17:32;;;;;;;13.70;4.87;;;;;;;15.02;60.24;102053.00;1462092;87;21510;-85
2022/11/11 10:20:16;;;;;;;11.23;3.87;;;;;;;15.05;60.41;102056.72;1454939;88;21359;-82
2022/11/11 10:22:45;;;;;;;6.37;3.43;;;;;;;15.09;61.49;102053.28;1481867;86;22305;-84
2022/11/11 10:25:17;;;;;;;14.17;3.80;;;;;;;15.04;59.20;102044.84;1482256;86;21495;-89
2022/11/11 10:27:46;;;;;;;6.53;3.50;;;;;;;14.82;57.25;102045.44;1481707;86;21642;-84
2022/11/11 10:30:32;;;;;;;8.57;4.10;;;;;;;14.80;60.07;102039.89;1481531;86;22874;-85
2022/11/11 10:33:30;;;;;;;7.90;4.10;;;;;;;14.87;61.44;102032.55;1441644;90;21463;-84
2022/11/11 10:36:01;;;;;;;10.33;4.07;;;;;;;15.00;62.08;102028.78;1417238;92;21881;-84
2022/11/11 10:38:48;;;;;;;6.43;3.70;;;;;;;14.94;60.55;102028.00;1414925;92;21354;-79
2022/11/11 10:41:31;;;;;;;8.43;3.70;;;;;;;14.98;60.68;102030.73;1415505;92;21449;-78
2022/11/11 10:43:58;;;;;;;10.40;3.03;;;;;;;14.97;57.88;102030.39;1408262;90;22274;-83
2022/11/11 10:46:37;;;;;;;9.73;4.27;;;;;;;14.92;56.40;102019.30;1436723;91;21814;-81
2022/11/11 10:49:20;;;;;;;7.10;3.23;;;;;;;14.85;56.37;102015.84;1418973;92;21509;-85
2022/11/11 10:52:07;;;;;;;7.70;3.33;;;;;;;14.87;59.04;102016.56;1411432;92;21427;-82
2022/11/11 10:54:57;;;;;;;5.67;3.10;;;;;;;14.99;60.19;102012.41;1413985;92;21346;-86
2022/11/11 10:57:58;;;;;;;9.07;3.53;;;;;;;15.08;59.86;102015.61;1412861;92;21591;-89
2022/11/11 11:00:24;;;;;;;6.90;3.10;;;;;;;15.15;60.74;101999.39;1420349;91;22778;-84
2022/11/11 11:03:22;;;;;;;10.23;4.37;;;;;;;15.19;56.12;102011.95;1426770;91;22451;-87
2022/11/11 11:05:57;;;;;;;7.37;3.27;;;;;;;15.12;56.25;102013.01;1425423;91;23964;-87
2022/11/11 11:08:31;;;;;;;7.00;2.97;;;;;;;15.02;56.48;102012.17;1423999;91;21494;-85
2022/11/11 11:11:01;;;;;;;19.70;3.63;;;;;;;14.87;56.41;102021.02;1429519;91;21545;-87
2022/11/11 11:14:09;;;;;;;8.28;3.00;;;;;;;14.83;58.04;102023.13;1505534;91;21281;-85
2022/11/11 11:16:43;;;;;;;6.40;2.83;;;;;;;14.83;59.38;102025.79;1379099;91;21396;-80
2022/11/11 11:19:18;;;;;;;7.93;3.17;;;;;;;14.73;57.87;102015.61;1340242;92;21400;-83
2022/11/11 11:21:57;;;;;;;13.67;3.50;;;;;;;14.61;57.12;102022.00;1489609;91;22131;-85
2022/11/11 11:24:30;;;;;;;7.83;2.80;;;;;;;14.54;58.02;102015.05;1412976;92;21375;-85
2022/11/11 11:27:03;;;;;;;9.03;3.33;;;;;;;14.42;57.60;102014.27;1420721;91;21501;-79
2022/11/11 11:29:42;;;;;;;9.83;3.17;;;;;;;14.48;59.32;102013.39;1500333;91;21896;-79
2022/11/11 11:32:22;;;;;;;7.20;2.57;;;;;;;14.38;58.37;102019.50;1428963;91;21317;-78
2022/11/11 11:34:54;;;;;;;9.38;3.33;;;;;;;14.36;59.26;102025.96;1471936;91;22237;-78
2022/11/11 11:37:24;;;;;;;9.23;3.43;;;;;;;14.32;60.35;102025.36;1522237;90;21331;-84
2022/11/11 11:40:03;;;;;;;4.87;2.93;;;;;;;14.27;59.35;102031.59;1400092;90;21544;-79
2022/11/11 11:42:38;;;;;;;7.03;3.50;;;;;;;14.27;59.98;102035.59;1440845;90;21383;-78
2022/11/11 11:45:28;;;;;;;8.43;3.70;;;;;;;14.21;59.22;102028.11;1440854;90;21552;-76
2022/11/11 11:48:36;;;;;;;7.50;3.20;;;;;;;14.21;59.53;102033.43;1517005;90;22306;-76
2022/11/11 11:51:22;;;;;;;10.57;4.07;;;;;;;14.26;59.89;102032.55;1519354;90;21457;-78
2022/11/11 11:53:55;;;;;;;11.67;6.03;;;;;;;14.26;59.25;102031.22;1489027;92;21322;-77
2022/11/11 11:56:30;;;;;;;7.40;4.20;;;;;;;14.29;59.43;102036.28;1420561;90;21397;-78
2022/11/11 11:59:05;;;;;;;8.77;3.87;;;;;;;14.28;59.81;102036.43;1520975;90;22242;-78
2022/11/11 12:02:02;;;;;;;12.30;4.30;;;;;;;14.29;60.06;102040.27;1473225;90;21472;-80
2022/11/11 12:04:43;;;;;;;9.17;4.13;;;;;;;14.27;59.72;102038.25;1411503;91;22066;-78
2022/11/11 12:07:30;;;;;;;12.18;4.08;;;;;;;14.32;60.27;102037.34;1406906;90;21696;-83
2022/11/11 12:10:35;;;;;;;14.53;4.67;;;;;;;14.29;58.47;102034.11;1414400;92;21568;-82
2022/11/11 12:13:19;;;;;;;9.90;4.00;;;;;;;14.29;59.47;102036.28;1444404;90;21382;-82
2022/11/11 12:16:00;;;;;;;9.27;3.87;;;;;;;14.27;59.46;102043.58;1442811;89;22327;-82
2022/11/11 12:18:50;;;;;;;12.57;3.90;;;;;;;14.22;56.16;102041.80;1415261;92;21360;-86
2022/11/11 12:21:19;;;;;;;10.27;4.53;;;;;;;14.18;57.91;102044.34;1438047;90;21352;-81
2022/11/11 12:24:30;;;;;;;8.23;3.50;;;;;;;14.15;58.20;102037.95;1440776;90;21388;-84
2022/11/11 12:27:17;;;;;;;;;;;;;;;14.14;59.21;102038.95;1445640;90;23252;-82
2022/11/11 12:30:07;;;;;;;;;;;;;;;14.07;58.94;102029.78;1430015;91;20282;-84
2022/11/11 12:33:11;;;;;;;;;;;;;;;14.06;60.91;102026.77;1450024;89;20301;-85
2022/11/11 12:35:44;;;;;;;;;;;;;;;14.02;61.13;102021.37;1452258;89;20429;-85
2022/11/11 12:38:26;;;;;;;;;;;;;;;14.00;61.88;102013.01;1443678;89;20301;-86
2022/11/11 12:41:21;;;;;;;;;;;;;;;14.03;62.04;102008.41;1452071;89;20391;-85
2022/11/11 12:43:57;;;;;;;;;;;;;;;14.02;61.39;102006.23;1442648;89;21055;-86
2022/11/11 12:46:59;;;;;;;;;;;;;;;13.94;59.43;102005.55;1423843;91;20345;-86
2022/11/11 12:49:41;;;;;;;;;;;;;;;13.90;61.63;102005.47;1419313;91;20886;-86
2022/11/11 12:52:35;;;;;;;;;;;;;;;13.86;61.02;102007.17;1429509;91;20392;-86